Time;durP1;ratioP1;P1;durP2;ratioP2;P2;SDS_P1;SDS_P2;PMS_P1;PMS_P2;Temp;Humidity;BMP_temperature;BMP_pressure;BME280_temperature;BME280_humidity;BME280_pressure;Samples;Min_cycle;Max_cycle;Signal;HPM_P1;HPM_P2
2022/11/15 00:00:05;;;;;;;1.73;0.80;;;;;;;23.67;40.36;99062.97;5069417;28;20539;-68
2022/11/15 00:02:31;;;;;;;0.60;0.40;;;;;;;23.67;40.45;99062.97;5069517;28;20055;-50
2022/11/15 00:04:56;;;;;;;1.08;0.60;;;;;;;23.66;40.53;99060.56;5080690;28;20043;-52
2022/11/15 00:07:21;;;;;;;0.68;0.50;;;;;;;23.69;40.42;99062.56;5074246;28;20068;-52
2022/11/15 00:09:47;;;;;;;0.68;0.50;;;;;;;23.68;40.19;99058.16;5088443;28;20442;-52
2022/11/15 00:12:13;;;;;;;0.82;0.50;;;;;;;23.68;40.42;99058.97;5075418;28;20052;-48
2022/11/15 00:14:38;;;;;;;1.00;0.52;;;;;;;23.68;40.44;99058.16;5105997;28;20047;-48
2022/11/15 00:17:04;;;;;;;0.65;0.50;;;;;;;23.67;40.61;99053.78;5108253;28;20150;-67
2022/11/15 00:19:29;;;;;;;0.40;0.40;;;;;;;23.67;40.49;99053.78;5088919;28;20055;-68
2022/11/15 00:21:54;;;;;;;0.63;0.50;;;;;;;23.66;40.52;99053.00;5069142;28;20408;-67
2022/11/15 00:24:20;;;;;;;0.75;0.40;;;;;;;23.66;40.39;99050.19;5071527;28;20056;-52
2022/11/15 00:26:45;;;;;;;0.88;0.47;;;;;;;23.68;40.50;99055.38;5079362;28;20768;-50
2022/11/15 00:29:10;;;;;;;1.05;0.50;;;;;;;23.65;40.55;99042.22;5071272;28;20425;-52
2022/11/15 00:31:36;;;;;;;0.80;0.50;;;;;;;23.68;40.62;99041.41;5073517;28;20476;-51
2022/11/15 00:34:01;;;;;;;0.40;0.32;;;;;;;23.67;40.58;99037.03;5074818;28;20456;-51
2022/11/15 00:36:27;;;;;;;0.63;0.50;;;;;;;23.69;40.67;99041.00;5074651;28;20048;-67
2022/11/15 00:38:52;;;;;;;0.95;0.60;;;;;;;23.71;40.63;99043.38;5077145;28;20037;-67
2022/11/15 00:41:17;;;;;;;0.82;0.52;;;;;;;23.69;40.53;99048.59;5076461;28;20434;-66
2022/11/15 00:43:43;;;;;;;1.40;0.75;;;;;;;23.67;40.55;99037.81;5068741;28;20095;-52
2022/11/15 00:46:09;;;;;;;0.63;0.50;;;;;;;23.68;40.53;99036.63;5068424;28;20051;-67
2022/11/15 00:48:35;;;;;;;1.00;0.60;;;;;;;23.68;40.61;99033.03;5093028;28;20070;-51
2022/11/15 00:51:01;;;;;;;0.50;0.40;;;;;;;23.66;40.60;99027.88;5072518;28;20056;-50
2022/11/15 00:53:26;;;;;;;0.75;0.60;;;;;;;23.65;40.61;99029.06;5068706;28;20049;-49
2022/11/15 00:55:52;;;;;;;1.50;0.60;;;;;;;23.67;40.71;99037.03;5087750;28;20054;-68
2022/11/15 00:58:18;;;;;;;0.85;0.50;;;;;;;23.66;40.70;99032.66;5108811;28;20039;-52
2022/11/15 01:00:44;;;;;;;0.50;0.40;;;;;;;23.66;40.59;99035.44;5120675;28;20042;-53
2022/11/15 01:03:09;;;;;;;1.08;0.50;;;;;;;23.67;40.53;99035.03;5122593;27;20047;-69
2022/11/15 01:05:37;;;;;;;0.55;0.40;;;;;;;23.67;40.78;99034.25;5081471;28;20037;-53
2022/11/15 01:08:03;;;;;;;0.63;0.50;;;;;;;23.67;40.77;99037.81;5076476;28;20048;-49
2022/11/15 01:10:28;;;;;;;0.90;0.60;;;;;;;23.66;40.78;99032.66;5073345;28;20055;-51
2022/11/15 01:12:53;;;;;;;1.00;0.68;;;;;;;23.66;40.75;99038.25;5083980;28;20511;-68
2022/11/15 01:15:19;;;;;;;0.68;0.57;;;;;;;23.64;40.77;99035.81;5075535;28;20071;-49
2022/11/15 01:17:44;;;;;;;0.93;0.60;;;;;;;23.64;40.74;99035.03;5079602;28;20143;-67
2022/11/15 01:20:10;;;;;;;0.90;0.63;;;;;;;23.68;40.65;99041.41;5075172;28;20044;-49
2022/11/15 01:22:35;;;;;;;1.10;0.65;;;;;;;23.69;40.57;99040.22;5087349;28;20059;-68
2022/11/15 01:25:00;;;;;;;0.98;0.60;;;;;;;23.71;40.65;99038.59;5080519;28;20032;-51
2022/11/15 01:27:26;;;;;;;0.73;0.50;;;;;;;23.72;40.85;99036.59;5085063;28;20084;-68
2022/11/15 01:29:51;;;;;;;0.82;0.50;;;;;;;23.71;40.97;99037.81;5084766;28;20432;-49
2022/11/15 01:32:17;;;;;;;0.80;0.50;;;;;;;23.71;40.73;99032.22;5082047;28;20432;-51
2022/11/15 01:34:43;;;;;;;0.75;0.52;;;;;;;23.69;40.62;99031.84;5095328;28;20040;-49
2022/11/15 01:37:08;;;;;;;1.05;0.70;;;;;;;23.68;40.83;99028.25;5098436;28;20399;-50
2022/11/15 01:39:34;;;;;;;0.65;0.50;;;;;;;23.68;40.85;99028.25;5087279;28;20500;-50
2022/11/15 01:41:59;;;;;;;1.15;0.80;;;;;;;23.68;40.79;99027.47;5076669;28;20085;-51
2022/11/15 01:44:39;;;;;;;0.82;0.60;;;;;;;23.67;40.89;99023.06;5074761;28;20047;-69
2022/11/15 01:47:12;;;;;;;0.73;0.57;;;;;;;23.68;40.73;99030.25;5096869;28;20035;-67
2022/11/15 01:49:42;;;;;;;1.02;0.60;;;;;;;23.66;40.78;99016.69;5087097;28;20118;-66
2022/11/15 01:52:13;;;;;;;1.20;0.80;;;;;;;23.67;40.64;99014.69;5087480;28;20072;-51
2022/11/15 01:54:39;;;;;;;1.48;0.70;;;;;;;23.66;40.84;99010.31;5083657;28;20140;-67
2022/11/15 01:57:09;;;;;;;1.15;0.70;;;;;;;23.65;40.98;99003.13;5094863;28;20163;-48
2022/11/15 01:59:37;;;;;;;0.82;0.68;;;;;;;23.66;40.88;99010.31;5092588;28;20032;-67
2022/11/15 02:02:03;;;;;;;1.23;0.75;;;;;;;23.66;40.88;99001.94;5090830;28;20044;-52
2022/11/15 02:04:31;;;;;;;1.02;0.70;;;;;;;23.65;40.97;98991.94;5082937;28;20032;-53
2022/11/15 02:06:57;;;;;;;1.23;0.60;;;;;;;23.67;40.72;98989.56;5077074;28;20090;-50
2022/11/15 02:09:22;;;;;;;0.82;0.52;;;;;;;23.65;40.89;98992.78;5084229;28;20048;-68
2022/11/15 02:11:50;;;;;;;0.95;0.65;;;;;;;23.66;40.77;98985.97;5073902;28;20048;-54
2022/11/15 02:14:19;;;;;;;0.90;0.60;;;;;;;23.65;40.79;98987.19;5090320;28;20504;-51
2022/11/15 02:17:14;;;;;;;0.73;0.57;;;;;;;23.65;41.33;98986.38;5073491;28;20584;-47
2022/11/15 02:20:10;;;;;;;0.73;0.60;;;;;;;23.67;41.01;98983.97;5047953;28;20072;-49
2022/11/15 02:23:10;;;;;;;0.90;0.60;;;;;;;23.66;41.04;98976.81;5080933;28;20547;-49
2022/11/15 02:25:38;;;;;;;0.95;0.55;;;;;;;23.65;41.11;98969.59;5085117;28;20093;-68
2022/11/15 02:28:07;;;;;;;0.75;0.50;;;;;;;23.64;41.05;98984.78;5074929;28;20127;-49
2022/11/15 02:30:42;;;;;;;0.68;0.47;;;;;;;23.62;41.03;98971.22;5088325;28;20059;-50
2022/11/15 02:33:24;;;;;;;0.90;0.60;;;;;;;23.61;40.97;98970.44;5070663;28;20045;-50
2022/11/15 02:35:59;;;;;;;1.15;0.65;;;;;;;23.61;40.93;98970.44;5072798;28;20589;-68
2022/11/15 02:38:28;;;;;;;0.55;0.43;;;;;;;23.63;41.17;98972.03;5086460;28;20040;-51
2022/11/15 02:41:00;;;;;;;1.05;0.73;;;;;;;23.60;40.92;98966.06;5077014;28;20040;-49
2022/11/15 02:43:58;;;;;;;0.83;0.53;;;;;;;23.63;41.03;98960.84;5083395;28;20043;-50
2022/11/15 02:47:12;;;;;;;1.13;0.60;;;;;;;23.63;40.96;98956.06;5121874;28;20554;-51
2022/11/15 02:49:14;;;;;;;1.13;0.70;;;;;;;23.61;41.12;98947.31;5104835;28;20049;-49
2022/11/15 02:51:42;;;;;;;0.88;0.60;;;;;;;23.60;41.11;98942.91;5073541;28;20048;-67
2022/11/15 02:54:14;;;;;;;1.38;0.70;;;;;;;23.60;41.07;98948.47;5089485;28;20408;-68
2022/11/15 02:56:40;;;;;;;0.60;0.50;;;;;;;23.57;41.04;98949.28;5075244;28;20051;-50
2022/11/15 02:59:11;;;;;;;0.50;0.50;;;;;;;23.59;41.13;98953.25;5074859;28;20782;-49
2022/11/15 03:01:48;;;;;;;0.90;0.50;;;;;;;23.59;41.09;98944.91;5089017;28;20437;-50
2022/11/15 03:04:16;;;;;;;0.75;0.47;;;;;;;23.59;41.16;98944.91;5087238;28;20098;-51
2022/11/15 03:07:08;;;;;;;0.77;0.50;;;;;;;23.59;41.07;98938.50;5078041;28;20061;-68
2022/11/15 03:09:50;;;;;;;0.67;0.50;;;;;;;23.59;41.02;98939.31;5076539;28;20047;-51
2022/11/15 03:12:47;;;;;;;0.85;0.60;;;;;;;23.56;41.13;98940.09;5070314;28;20271;-66
2022/11/15 03:15:23;;;;;;;0.90;0.50;;;;;;;23.61;41.13;98924.97;5096266;28;20044;-67
2022/11/15 03:17:54;;;;;;;0.50;0.40;;;;;;;23.65;40.98;98931.34;5086461;28;20044;-51
2022/11/15 03:20:20;;;;;;;1.23;0.70;;;;;;;23.66;40.95;98934.94;5070161;28;20032;-67
2022/11/15 03:22:47;;;;;;;0.85;0.60;;;;;;;23.65;41.06;98939.72;5071055;28;20053;-67
2022/11/15 03:25:19;;;;;;;0.50;0.47;;;;;;;23.67;40.93;98950.47;5071793;28;20064;-68
2022/11/15 03:27:49;;;;;;;2.03;0.50;;;;;;;23.66;40.76;98946.09;5072288;28;20048;-52
2022/11/15 03:30:15;;;;;;;1.08;0.68;;;;;;;23.67;40.93;98956.06;5082920;28;20054;-68
2022/11/15 03:32:47;;;;;;;0.90;0.60;;;;;;;23.67;40.85;98956.06;5078164;28;20044;-67
2022/11/15 03:35:19;;;;;;;1.00;0.70;;;;;;;23.67;40.94;98947.69;5083415;28;20452;-49
2022/11/15 03:38:16;;;;;;;0.50;0.50;;;;;;;23.67;40.87;98944.91;5071552;28;20405;-53
2022/11/15 03:40:47;;;;;;;0.88;0.60;;;;;;;23.66;41.06;98937.72;5080856;28;20546;-51
2022/11/15 03:43:23;;;;;;;0.60;0.50;;;;;;;23.67;40.83;98933.72;5087734;28;20044;-66
2022/11/15 03:46:00;;;;;;;0.82;0.60;;;;;;;23.63;41.12;98921.75;5075377;28;20538;-68
2022/11/15 03:48:33;;;;;;;0.95;0.50;;;;;;;23.64;41.02;98918.56;5077157;28;20097;-49
2022/11/15 03:50:59;;;;;;;0.77;0.50;;;;;;;23.63;40.82;98908.59;5081600;28;20045;-49
2022/11/15 03:53:25;;;;;;;0.63;0.50;;;;;;;23.64;41.08;98907.38;5073231;28;20050;-68
2022/11/15 03:55:50;;;;;;;0.80;0.55;;;;;;;23.64;41.02;98906.59;5078288;28;20049;-69
2022/11/15 03:58:15;;;;;;;0.70;0.50;;;;;;;23.63;41.11;98908.59;5093463;28;20047;-50
2022/11/15 04:00:41;;;;;;;0.45;0.40;;;;;;;23.64;40.96;98907.38;5085107;28;20450;-68
2022/11/15 04:03:07;;;;;;;0.40;0.40;;;;;;;23.64;41.00;98909.38;5076051;28;20102;-52
2022/11/15 04:05:33;;;;;;;0.70;0.50;;;;;;;23.64;41.10;98906.59;5083315;28;20071;-68
2022/11/15 04:07:58;;;;;;;0.40;0.30;;;;;;;23.64;40.97;98903.81;5076824;28;20586;-48
2022/11/15 04:10:24;;;;;;;0.80;0.52;;;;;;;23.63;41.16;98891.06;5072668;28;20041;-68
2022/11/15 04:12:49;;;;;;;1.40;0.60;;;;;;;23.61;40.95;98886.66;5080082;28;20118;-69
2022/11/15 04:15:17;;;;;;;0.57;0.40;;;;;;;23.61;41.26;98889.47;5074992;28;20366;-49
2022/11/15 04:17:48;;;;;;;0.70;0.50;;;;;;;23.60;41.07;98896.25;5069388;28;20048;-50
2022/11/15 04:26:07;;;;;;;0.60;0.50;;;;;;;23.59;41.06;98869.50;5074692;28;20064;-68
2022/11/15 04:28:33;;;;;;;0.80;0.60;;;;;;;23.58;41.17;98867.94;5077549;28;20067;-48
2022/11/15 04:30:59;;;;;;;1.08;0.55;;;;;;;23.57;41.02;98869.09;5076748;28;20080;-69
2022/11/15 04:33:25;;;;;;;0.40;0.40;;;;;;;23.57;41.24;98860.72;5069040;28;20048;-68
2022/11/15 04:38:36;;;;;;;0.80;0.50;;;;;;;23.57;41.28;98859.94;5067749;28;20056;-49
2022/11/15 04:41:02;;;;;;;0.47;0.40;;;;;;;23.55;41.34;98856.75;5084660;28;20090;-49
2022/11/15 04:43:28;;;;;;;0.63;0.50;;;;;;;23.56;41.29;98855.56;5082180;28;20060;-69
2022/11/15 04:45:57;;;;;;;0.60;0.50;;;;;;;23.55;41.30;98859.56;5071714;28;20049;-49
2022/11/15 04:48:22;;;;;;;0.80;0.60;;;;;;;23.56;41.29;98863.94;5070349;28;20048;-68
2022/11/15 04:50:48;;;;;;;0.75;0.50;;;;;;;23.56;41.36;98855.56;5086803;28;20046;-68
2022/11/15 04:53:14;;;;;;;0.80;0.50;;;;;;;23.57;41.26;98851.56;5095449;28;20051;-68
2022/11/15 04:55:39;;;;;;;0.93;0.50;;;;;;;23.57;41.12;98846.78;5096577;28;20048;-69
2022/11/15 04:58:05;;;;;;;0.70;0.50;;;;;;;23.58;41.14;98837.22;5081450;28;20076;-52
2022/11/15 05:00:30;;;;;;;0.52;0.50;;;;;;;23.61;41.15;98842.00;5092203;28;20044;-54
2022/11/15 05:05:41;;;;;;;0.88;0.60;;;;;;;23.64;41.00;98828.41;5068967;28;20113;-49
2022/11/15 05:08:07;;;;;;;0.95;0.52;;;;;;;23.64;41.03;98831.22;5072004;28;20119;-47
2022/11/15 05:10:32;;;;;;;1.25;0.57;;;;;;;23.60;41.13;98815.28;5077422;28;20049;-51
2022/11/15 05:12:58;;;;;;;0.80;0.50;;;;;;;23.65;41.02;98818.84;5075311;28;20073;-49
2022/11/15 05:15:23;;;;;;;0.80;0.52;;;;;;;23.64;40.98;98822.84;5076291;28;20402;-50
2022/11/15 05:17:48;;;;;;;0.75;0.50;;;;;;;23.64;40.96;98814.47;5075676;28;20080;-52
2022/11/15 05:20:14;;;;;;;0.77;0.50;;;;;;;23.64;40.81;98806.88;5083740;28;20415;-68
2022/11/15 05:22:39;;;;;;;0.90;0.55;;;;;;;23.61;41.08;98802.91;5074905;28;20040;-67
2022/11/15 05:25:06;;;;;;;0.77;0.50;;;;;;;23.61;41.00;98802.91;5078365;28;20040;-51
2022/11/15 05:27:32;;;;;;;1.10;0.60;;;;;;;23.63;41.22;98804.50;5073344;28;21339;-51
2022/11/15 05:29:57;;;;;;;0.55;0.45;;;;;;;23.60;41.18;98789.34;5072770;28;20389;-53
2022/11/15 05:32:23;;;;;;;0.60;0.40;;;;;;;23.59;40.92;98785.75;5069763;28;20115;-66
2022/11/15 05:34:49;;;;;;;0.85;0.63;;;;;;;23.60;40.95;98784.59;5074428;28;20511;-54
2022/11/15 05:37:15;;;;;;;0.45;0.40;;;;;;;23.58;41.20;98783.38;5075326;28;20594;-67
2022/11/15 05:39:41;;;;;;;0.57;0.50;;;;;;;23.59;41.07;98790.56;5080791;28;20055;-52
2022/11/15 05:42:10;;;;;;;0.82;0.50;;;;;;;23.60;41.10;98786.56;5084372;28;20491;-50
2022/11/15 05:44:38;;;;;;;0.60;0.50;;;;;;;23.58;41.03;98784.19;5091114;28;20138;-49
2022/11/15 05:47:07;;;;;;;0.57;0.50;;;;;;;23.58;41.18;98784.19;5071722;28;20530;-49
2022/11/15 05:49:36;;;;;;;0.70;0.55;;;;;;;23.60;41.04;98784.59;5069088;28;20406;-52
2022/11/15 05:52:05;;;;;;;0.57;0.40;;;;;;;23.61;41.14;98786.16;5088631;28;20135;-68
2022/11/15 05:54:32;;;;;;;0.60;0.50;;;;;;;23.63;40.97;98790.53;5078706;28;20393;-68
2022/11/15 05:56:58;;;;;;;1.27;0.60;;;;;;;23.65;41.03;98766.63;5083787;28;20063;-69
2022/11/15 05:59:24;;;;;;;0.73;0.43;;;;;;;23.64;40.99;98770.59;5089787;28;20048;-68
2022/11/15 06:01:49;;;;;;;0.55;0.50;;;;;;;23.65;40.89;98790.91;5089517;28;20450;-53
2022/11/15 06:04:15;;;;;;;1.02;0.60;;;;;;;23.66;41.10;98778.56;5102277;28;20571;-53
2022/11/15 06:06:40;;;;;;;1.15;0.60;;;;;;;23.67;40.85;98782.94;5074871;28;20110;-69
2022/11/15 06:09:06;;;;;;;0.50;0.50;;;;;;;23.67;41.03;98777.38;5075452;28;20040;-53
2022/11/15 06:11:31;;;;;;;0.73;0.52;;;;;;;23.69;41.03;98788.91;5074690;28;20143;-69
2022/11/15 06:13:56;;;;;;;0.40;0.40;;;;;;;23.68;41.02;98784.53;5077469;28;20048;-68
2022/11/15 06:16:22;;;;;;;0.50;0.40;;;;;;;23.70;40.85;98787.69;5086478;28;20070;-49
2022/11/15 06:18:47;;;;;;;0.70;0.45;;;;;;;23.70;40.72;98782.13;5084866;28;20071;-66
2022/11/15 06:21:13;;;;;;;0.60;0.50;;;;;;;23.70;40.93;98782.13;5082625;28;20071;-51
2022/11/15 06:23:38;;;;;;;0.63;0.50;;;;;;;23.72;40.77;98790.88;5080944;28;20101;-50
2022/11/15 06:26:03;;;;;;;0.38;0.38;;;;;;;23.71;40.74;98783.69;5075402;28;20036;-51
2022/11/15 06:28:33;;;;;;;0.60;0.47;;;;;;;23.71;40.89;98778.13;5076092;28;20039;-68
2022/11/15 06:31:10;;;;;;;0.77;0.50;;;;;;;23.69;40.92;98781.31;5090842;28;20056;-52
2022/11/15 06:33:36;;;;;;;0.50;0.50;;;;;;;23.72;40.85;98780.53;5070874;28;20075;-50
2022/11/15 06:36:03;;;;;;;0.55;0.43;;;;;;;23.72;41.00;98774.13;5077939;28;20071;-68
2022/11/15 06:38:28;;;;;;;1.85;0.75;;;;;;;23.72;41.32;98783.31;5092570;28;20085;-63
2022/11/15 06:40:54;;;;;;;30.73;2.60;;;;;;;23.76;41.31;98774.91;5074884;28;20032;-50
2022/11/15 06:43:19;;;;;;;11.93;1.20;;;;;;;23.80;41.64;98775.69;5070889;28;20048;-67
2022/11/15 06:45:45;;;;;;;13.95;1.20;;;;;;;23.81;41.40;98789.22;5083752;28;20044;-66
2022/11/15 06:48:10;;;;;;;14.18;1.50;;;;;;;23.85;41.21;98791.97;5084296;28;20047;-68
2022/11/15 06:50:35;;;;;;;15.32;1.77;;;;;;;23.84;41.15;98782.81;5079269;28;20434;-53
2022/11/15 06:53:03;;;;;;;18.33;1.70;;;;;;;23.88;41.33;98788.38;5073444;28;20132;-54
2022/11/15 06:55:28;;;;;;;18.20;1.85;;;;;;;23.87;41.07;98795.16;5082021;28;20493;-55
2022/11/15 06:57:54;;;;;;;10.15;1.30;;;;;;;23.87;41.15;98797.97;5073555;28;20106;-67
2022/11/15 07:00:21;;;;;;;6.47;1.30;;;;;;;23.87;41.09;98798.75;5080232;28;20044;-55
2022/11/15 07:02:47;;;;;;;13.63;1.20;;;;;;;23.89;41.12;98789.97;5083638;28;20052;-56
2022/11/15 07:05:14;;;;;;;4.97;1.00;;;;;;;23.90;41.07;98780.38;5072505;28;20045;-55
2022/11/15 07:07:39;;;;;;;10.60;1.02;;;;;;;23.94;40.84;98788.75;5080354;28;20131;-54
2022/11/15 07:10:06;;;;;;;7.63;0.98;;;;;;;23.93;40.86;98785.13;5075498;28;20135;-53
2022/11/15 07:12:31;;;;;;;11.35;1.20;;;;;;;23.96;40.96;98794.69;5081801;28;20075;-67
2022/11/15 07:14:57;;;;;;;10.10;1.08;;;;;;;23.94;40.99;98792.31;5093382;28;20032;-54
2022/11/15 07:17:22;;;;;;;7.38;0.90;;;;;;;23.94;40.93;98791.53;5069881;28;20051;-56
2022/11/15 07:19:48;;;;;;;4.60;0.90;;;;;;;23.95;40.70;98782.72;5074430;28;20045;-53
2022/11/15 07:22:13;;;;;;;5.78;0.98;;;;;;;23.94;40.78;98789.53;5083452;28;20039;-66
2022/11/15 07:24:39;;;;;;;3.78;0.93;;;;;;;23.94;40.77;98783.16;5072219;28;20041;-67
2022/11/15 07:27:04;;;;;;;6.10;0.93;;;;;;;23.95;40.83;98791.13;5071639;28;20051;-54
2022/11/15 07:29:30;;;;;;;4.18;1.00;;;;;;;23.94;40.86;98775.56;5082055;28;20142;-65
2022/11/15 07:31:55;;;;;;;8.32;1.00;;;;;;;23.92;40.78;98775.16;5088597;28;20042;-67
2022/11/15 07:34:20;;;;;;;5.85;0.70;;;;;;;23.91;40.67;98770.78;5075265;28;20067;-54
2022/11/15 07:36:46;;;;;;;4.55;0.85;;;;;;;23.90;40.72;98780.38;5075058;28;20049;-51
2022/11/15 07:39:12;;;;;;;3.47;0.90;;;;;;;23.88;41.15;98780.78;5086092;28;20051;-62
2022/11/15 07:41:38;;;;;;;9.23;0.90;;;;;;;23.89;41.61;98781.59;5094051;28;20040;-64
2022/11/15 07:44:04;;;;;;;3.15;0.73;;;;;;;23.88;41.65;98782.78;5092511;28;20058;-64
2022/11/15 07:46:30;;;;;;;2.58;1.10;;;;;;;23.87;42.00;98772.81;5100533;28;20082;-57
2022/11/15 07:48:56;;;;;;;5.35;1.92;;;;;;;23.78;41.44;98775.28;5098286;28;20050;-58
2022/11/15 07:51:21;;;;;;;5.43;2.47;;;;;;;23.60;41.61;98772.59;5095017;28;20044;-59
2022/11/15 07:53:46;;;;;;;4.28;2.20;;;;;;;23.49;41.93;98772.66;5096491;28;20117;-57
2022/11/15 07:56:12;;;;;;;6.88;1.90;;;;;;;23.52;41.85;98774.63;5102489;28;20028;-55
2022/11/15 07:58:38;;;;;;;56.40;21.85;;;;;;;23.52;41.81;98785.81;5105742;28;20067;-53
2022/11/15 08:01:08;;;;;;;24.45;7.13;;;;;;;23.35;41.67;98778.31;5094038;28;20442;-69
2022/11/15 08:03:35;;;;;;;9.65;3.45;;;;;;;23.30;41.96;98775.97;5099085;28;20048;-55
2022/11/15 08:06:00;;;;;;;10.73;3.55;;;;;;;23.28;41.94;98775.56;5099774;28;21146;-65
2022/11/15 08:08:26;;;;;;;9.95;3.15;;;;;;;23.29;41.92;98780.75;5098245;28;20043;-56
2022/11/15 08:10:51;;;;;;;6.38;2.40;;;;;;;23.32;41.85;98771.56;5068807;28;20110;-70
2022/11/15 08:13:17;;;;;;;5.50;1.92;;;;;;;23.37;41.97;98770.34;5101884;28;20038;-55
2022/11/15 08:15:43;;;;;;;3.60;1.90;;;;;;;23.41;42.32;98770.31;5083100;28;20059;-67
2022/11/15 08:18:14;;;;;;;4.88;1.95;;;;;;;23.45;41.95;98754.34;5097722;28;20044;-57
2022/11/15 08:20:40;;;;;;;3.25;1.58;;;;;;;23.52;41.90;98765.47;5101469;28;20054;-62
2022/11/15 08:23:06;;;;;;;3.55;1.52;;;;;;;23.56;42.18;98778.19;5103963;28;20039;-55
2022/11/15 08:25:35;;;;;;;3.55;1.60;;;;;;;23.60;42.19;98758.63;5100476;28;20128;-63
2022/11/15 08:28:04;;;;;;;2.97;1.50;;;;;;;23.64;42.30;98758.63;5085763;28;20047;-58
2022/11/15 08:30:30;;;;;;;3.83;1.55;;;;;;;23.69;42.00;98752.59;5081858;28;20054;-58
2022/11/15 08:32:58;;;;;;;4.18;1.42;;;;;;;23.71;42.37;98744.59;5091093;28;20060;-59
2022/11/15 08:35:24;;;;;;;2.75;1.20;;;;;;;23.73;42.13;98756.97;5091264;28;20504;-64
2022/11/15 08:37:51;;;;;;;2.35;1.30;;;;;;;23.76;42.11;98744.19;5091594;28;20279;-59
2022/11/15 08:40:18;;;;;;;2.78;1.20;;;;;;;23.77;42.12;98740.97;5084968;28;20125;-60
2022/11/15 08:42:46;;;;;;;2.88;1.13;;;;;;;23.81;42.22;98738.97;5069908;28;20036;-57
2022/11/15 08:45:12;;;;;;;2.97;1.20;;;;;;;23.82;42.10;98736.94;5093650;28;20055;-61
2022/11/15 08:47:37;;;;;;;2.55;1.33;;;;;;;23.85;42.06;98747.28;5086806;28;20108;-61
2022/11/15 08:50:03;;;;;;;2.13;1.10;;;;;;;23.84;42.10;98742.91;5088922;28;20062;-62
2022/11/15 08:52:28;;;;;;;2.00;1.10;;;;;;;23.88;42.06;98736.09;5091344;28;20113;-56
2022/11/15 08:54:54;;;;;;;2.03;1.10;;;;;;;23.89;42.05;98728.50;5096359;28;20039;-61
2022/11/15 08:57:19;;;;;;;1.95;1.10;;;;;;;23.91;42.01;98726.09;5086507;28;20362;-58
2022/11/15 08:59:44;;;;;;;1.98;0.90;;;;;;;23.93;41.87;98728.47;5077714;28;20032;-57
2022/11/15 09:02:14;;;;;;;2.47;1.00;;;;;;;23.90;41.96;98724.50;5083618;28;20416;-58
2022/11/15 09:04:41;;;;;;;1.52;0.98;;;;;;;23.92;41.84;98722.09;5077196;28;20433;-57
2022/11/15 09:07:07;;;;;;;2.58;0.90;;;;;;;23.94;41.84;98719.69;5067104;28;20463;-57
2022/11/15 09:09:32;;;;;;;1.98;0.90;;;;;;;23.96;41.92;98722.06;5084049;28;20051;-56
2022/11/15 09:11:58;;;;;;;1.85;0.95;;;;;;;23.96;41.96;98720.06;5083729;28;20090;-61
2022/11/15 09:14:23;;;;;;;3.67;1.02;;;;;;;23.97;41.69;98716.06;5075749;28;20048;-56
2022/11/15 09:16:49;;;;;;;1.52;0.80;;;;;;;23.99;41.96;98712.84;5082847;28;20043;-56
2022/11/15 09:19:15;;;;;;;1.17;0.77;;;;;;;23.99;42.00;98710.84;5100466;28;20073;-63
2022/11/15 09:21:40;;;;;;;1.33;0.88;;;;;;;23.99;41.68;98710.84;5095059;28;20054;-57
2022/11/15 09:24:06;;;;;;;2.47;0.90;;;;;;;24.00;41.79;98718.03;5103303;28;20035;-61
2022/11/15 09:26:31;;;;;;;1.85;0.90;;;;;;;24.01;41.81;98702.09;5096424;28;20058;-61
2022/11/15 09:28:56;;;;;;;1.42;0.88;;;;;;;24.01;41.74;98700.06;5101315;28;20046;-61
2022/11/15 09:31:22;;;;;;;1.35;0.82;;;;;;;24.02;41.73;98693.28;5109240;28;20087;-63
2022/11/15 09:33:47;;;;;;;1.95;0.80;;;;;;;24.02;41.79;98698.88;5102760;28;20063;-57
2022/11/15 09:36:13;;;;;;;1.08;0.68;;;;;;;24.03;42.03;98677.31;5102305;28;20032;-60
2022/11/15 09:38:38;;;;;;;2.03;0.90;;;;;;;24.04;41.73;98690.84;5104035;28;20058;-61
2022/11/15 09:41:12;;;;;;;1.88;0.70;;;;;;;24.05;41.99;98681.25;5099733;28;20055;-61
2022/11/15 09:43:44;;;;;;;1.33;0.75;;;;;;;24.04;41.81;98674.09;5099526;28;20419;-60
2022/11/15 09:46:51;;;;;;;1.38;0.80;;;;;;;24.13;42.16;98685.56;5096216;28;20044;-63
2022/11/15 09:49:17;;;;;;;1.13;0.75;;;;;;;24.15;41.72;98682.38;5060085;28;20036;-64
2022/11/15 09:51:49;;;;;;;0.77;0.55;;;;;;;24.13;41.82;98679.97;5085827;28;20056;-64
2022/11/15 09:54:31;;;;;;;1.45;0.80;;;;;;;24.16;42.01;98687.53;5097068;28;20144;-64
2022/11/15 09:57:06;;;;;;;26.77;4.82;;;;;;;24.14;41.95;98670.38;5100542;28;20047;-58
2022/11/15 09:59:46;;;;;;;18.73;3.78;;;;;;;24.15;41.85;98687.97;5104370;28;20039;-59
2022/11/15 10:02:42;;;;;;;27.58;4.80;;;;;;;24.15;41.85;98677.59;5105102;28;20504;-59
2022/11/15 10:05:12;;;;;;;19.40;4.90;;;;;;;24.17;42.03;98669.56;5105719;28;20047;-63
2022/11/15 10:07:46;;;;;;;25.35;4.93;;;;;;;24.16;41.97;98670.78;5095482;28;20042;-60
2022/11/15 10:10:30;;;;;;;21.27;4.35;;;;;;;24.19;42.01;98673.94;5103297;28;20046;-58
2022/11/15 10:12:57;;;;;;;18.50;4.40;;;;;;;24.20;41.79;98653.19;5083172;28;20079;-57
2022/11/15 10:15:22;;;;;;;18.67;4.05;;;;;;;24.19;42.10;98649.59;5088492;28;20507;-58
2022/11/15 10:18:00;;;;;;;15.68;4.03;;;;;;;24.19;42.05;98657.19;5090129;28;20767;-58
2022/11/15 10:20:30;;;;;;;15.93;3.47;;;;;;;24.19;42.04;98652.38;5096368;28;20040;-60
2022/11/15 10:23:00;;;;;;;13.00;3.53;;;;;;;24.19;41.84;98646.00;5103610;28;20043;-57
2022/11/15 10:25:31;;;;;;;12.20;3.40;;;;;;;24.20;41.82;98639.19;5101764;28;20079;-60
2022/11/15 10:27:57;;;;;;;10.93;2.80;;;;;;;24.20;41.84;98636.41;5099416;28;20036;-62
2022/11/15 10:30:29;;;;;;;17.35;3.85;;;;;;;24.20;41.89;98630.81;5100236;28;20058;-64
2022/11/15 10:32:54;;;;;;;20.95;5.20;;;;;;;24.22;41.91;98622.81;5103698;28;20044;-57
2022/11/15 10:35:29;;;;;;;14.82;3.60;;;;;;;24.20;41.90;98619.63;5101920;28;20173;-63
2022/11/15 10:38:09;;;;;;;15.80;4.00;;;;;;;24.19;42.04;98604.09;5105010;28;20047;-58
2022/11/15 10:40:36;;;;;;;9.98;3.17;;;;;;;24.19;42.07;98598.50;5095965;28;20044;-58
2022/11/15 10:43:08;;;;;;;11.50;3.47;;;;;;;24.16;41.85;98612.09;5093146;28;20055;-57
2022/11/15 10:45:34;;;;;;;10.60;3.10;;;;;;;24.17;41.90;98588.53;5085283;28;20079;-63
2022/11/15 10:48:11;;;;;;;10.38;3.10;;;;;;;24.17;41.94;98608.09;5099552;28;20526;-61
2022/11/15 10:50:42;;;;;;;14.48;2.97;;;;;;;24.19;42.24;98595.72;5101538;28;20066;-63
2022/11/15 10:53:41;;;;;;;6.53;2.38;;;;;;;24.21;41.94;98588.47;5096144;28;20159;-58
2022/11/15 10:56:15;;;;;;;7.72;2.33;;;;;;;24.24;41.87;98604.44;5091159;28;20052;-56
2022/11/15 10:58:51;;;;;;;6.65;2.38;;;;;;;24.24;42.15;98601.63;5088744;28;20044;-57
2022/11/15 11:01:18;;;;;;;12.05;2.20;;;;;;;24.23;42.23;98602.06;5089381;28;20411;-57
2022/11/15 11:03:57;;;;;;;7.38;2.13;;;;;;;24.24;42.12;98598.84;5086611;28;20575;-64
2022/11/15 11:06:23;;;;;;;7.75;2.17;;;;;;;24.23;42.18;98585.28;5097686;28;20055;-68
2022/11/15 11:08:56;;;;;;;11.88;3.30;;;;;;;24.25;42.29;98588.44;5094121;28;20040;-62
2022/11/15 11:11:22;;;;;;;12.50;3.22;;;;;;;24.24;42.22;98575.69;5101280;28;20058;-62
2022/11/15 11:13:48;;;;;;;10.77;2.97;;;;;;;24.19;42.09;98568.56;5102559;28;20043;-53
2022/11/15 11:16:13;;;;;;;11.68;2.90;;;;;;;24.18;42.03;98561.38;5102635;28;20049;-62
2022/11/15 11:19:17;;;;;;;12.25;3.10;;;;;;;24.16;42.11;98547.84;5106718;28;20043;-61
2022/11/15 11:22:11;;;;;;;7.50;2.63;;;;;;;24.15;42.09;98531.50;5049122;28;20126;-61
2022/11/15 11:24:45;;;;;;;8.40;2.70;;;;;;;24.14;42.19;98558.63;5095572;28;20048;-53
2022/11/15 11:27:42;;;;;;;7.18;2.50;;;;;;;24.13;42.45;98551.44;5098760;28;20036;-62
2022/11/15 11:30:19;;;;;;;6.72;2.10;;;;;;;24.13;42.24;98526.31;5091976;28;20097;-61
2022/11/15 11:33:10;;;;;;;6.35;2.10;;;;;;;24.14;42.22;98546.66;5096807;28;20051;-62
2022/11/15 11:35:57;;;;;;;6.70;2.25;;;;;;;24.13;42.21;98531.91;5097252;28;20515;-53
2022/11/15 11:38:33;;;;;;;5.22;1.98;;;;;;;24.12;42.10;98537.91;5071447;28;20508;-62
2022/11/15 11:41:23;;;;;;;5.35;2.00;;;;;;;24.11;41.93;98486.03;5096304;28;20047;-62
2022/11/15 11:44:17;;;;;;;4.85;1.70;;;;;;;24.09;42.30;98497.63;5081205;28;20044;-62
2022/11/15 11:46:54;;;;;;;6.25;2.10;;;;;;;24.10;42.27;98507.59;5079191;28;20044;-62
2022/11/15 11:49:50;;;;;;;5.07;1.70;;;;;;;24.06;42.22;98481.69;5083579;28;20393;-62
2022/11/15 11:52:21;;;;;;;4.03;1.33;;;;;;;24.08;42.31;98486.88;5076907;28;20055;-62